sensor_id;sensor_type;location;lat;lon;timestamp;temperature;humidity
12370;DHT22;6249;52.128;9.986;2023-02-14T00:01:54;2.30;99.90
12370;DHT22;6249;52.128;9.986;2023-02-14T00:05:17;2.40;99.90
12370;DHT22;6249;52.128;9.986;2023-02-14T00:08:38;2.30;99.90
12370;DHT22;6249;52.128;9.986;2023-02-14T00:12:00;2.30;99.90
12370;DHT22;6249;52.128;9.986;2023-02-14T00:15:20;2.20;99.90
12370;DHT22;6249;52.128;9.986;2023-02-14T00:18:44;2.20;99.90
12370;DHT22;6249;52.128;9.986;2023-02-14T00:22:23;2.10;99.90
12370;DHT22;6249;52.128;9.986;2023-02-14T00:25:44;2.10;99.90
12370;DHT22;6249;52.128;9.986;2023-02-14T00:29:14;2.10;99.90
12370;DHT22;6249;52.128;9.986;2023-02-14T00:32:43;2.00;99.90
12370;DHT22;6249;52.128;9.986;2023-02-14T00:36:04;2.00;99.90
12370;DHT22;6249;52.128;9.986;2023-02-14T00:39:28;1.90;99.90
12370;DHT22;6249;52.128;9.986;2023-02-14T00:42:48;1.80;99.90
12370;DHT22;6249;52.128;9.986;2023-02-14T00:46:09;1.80;99.90
12370;DHT22;6249;52.128;9.986;2023-02-14T00:49:32;1.70;99.90
12370;DHT22;6249;52.128;9.986;2023-02-14T00:52:52;1.60;99.90
12370;DHT22;6249;52.128;9.986;2023-02-14T00:56:14;1.70;99.90
12370;DHT22;6249;52.128;9.986;2023-02-14T00:59:37;1.60;99.90
12370;DHT22;6249;52.128;9.986;2023-02-14T01:03:00;1.50;99.90
12370;DHT22;6249;52.128;9.986;2023-02-14T01:06:23;1.50;99.90
12370;DHT22;6249;52.128;9.986;2023-02-14T01:09:44;1.40;99.90
12370;DHT22;6249;52.128;9.986;2023-02-14T01:13:05;1.40;99.90
12370;DHT22;6249;52.128;9.986;2023-02-14T01:16:27;1.40;99.90
12370;DHT22;6249;52.128;9.986;2023-02-14T01:19:51;1.40;99.90
12370;DHT22;6249;52.128;9.986;2023-02-14T01:23:12;1.40;99.90
12370;DHT22;6249;52.128;9.986;2023-02-14T01:26:34;1.40;99.90
12370;DHT22;6249;52.128;9.986;2023-02-14T01:29:57;1.30;99.90
12370;DHT22;6249;52.128;9.986;2023-02-14T01:33:17;1.20;99.90
12370;DHT22;6249;52.128;9.986;2023-02-14T01:36:40;1.10;99.90
12370;DHT22;6249;52.128;9.986;2023-02-14T01:40:01;1.00;99.90
12370;DHT22;6249;52.128;9.986;2023-02-14T01:43:22;1.00;99.90
12370;DHT22;6249;52.128;9.986;2023-02-14T01:46:46;1.00;99.90
12370;DHT22;6249;52.128;9.986;2023-02-14T01:50:13;1.00;99.90
12370;DHT22;6249;52.128;9.986;2023-02-14T01:53:35;1.00;99.90
12370;DHT22;6249;52.128;9.986;2023-02-14T01:57:02;1.10;99.90
12370;DHT22;6249;52.128;9.986;2023-02-14T02:00:26;1.10;99.90
12370;DHT22;6249;52.128;9.986;2023-02-14T02:04:12;1.10;99.90
12370;DHT22;6249;52.128;9.986;2023-02-14T02:07:37;1.20;99.90
12370;DHT22;6249;52.128;9.986;2023-02-14T02:10:59;1.20;99.90
12370;DHT22;6249;52.128;9.986;2023-02-14T02:14:23;1.30;99.90
12370;DHT22;6249;52.128;9.986;2023-02-14T02:18:01;1.40;99.90
12370;DHT22;6249;52.128;9.986;2023-02-14T02:40:27;1.60;99.90
12370;DHT22;6249;52.128;9.986;2023-02-14T02:43:57;1.70;99.90
12370;DHT22;6249;52.128;9.986;2023-02-14T02:51:05;1.80;99.90
12370;DHT22;6249;52.128;9.986;2023-02-14T02:54:57;1.80;99.90
12370;DHT22;6249;52.128;9.986;2023-02-14T02:58:19;1.80;99.90
12370;DHT22;6249;52.128;9.986;2023-02-14T03:01:41;1.80;99.90
12370;DHT22;6249;52.128;9.986;2023-02-14T03:05:04;1.80;99.90
12370;DHT22;6249;52.128;9.986;2023-02-14T03:08:27;1.80;99.90
12370;DHT22;6249;52.128;9.986;2023-02-14T03:12:01;1.70;99.90
12370;DHT22;6249;52.128;9.986;2023-02-14T03:16:01;1.80;99.90
12370;DHT22;6249;52.128;9.986;2023-02-14T03:20:08;1.90;99.90
12370;DHT22;6249;52.128;9.986;2023-02-14T03:23:44;1.80;99.90
12370;DHT22;6249;52.128;9.986;2023-02-14T03:34:37;1.80;99.90
12370;DHT22;6249;52.128;9.986;2023-02-14T03:38:09;1.70;99.90
12370;DHT22;6249;52.128;9.986;2023-02-14T03:41:37;1.60;99.90
12370;DHT22;6249;52.128;9.986;2023-02-14T03:45:01;1.70;99.90
12370;DHT22;6249;52.128;9.986;2023-02-14T03:48:24;1.90;99.90
12370;DHT22;6249;52.128;9.986;2023-02-14T03:51:48;2.00;99.90
12370;DHT22;6249;52.128;9.986;2023-02-14T03:55:16;2.00;99.90
12370;DHT22;6249;52.128;9.986;2023-02-14T03:58:43;2.10;99.90
12370;DHT22;6249;52.128;9.986;2023-02-14T04:02:10;2.20;99.90
12370;DHT22;6249;52.128;9.986;2023-02-14T04:05:32;2.40;99.90
12370;DHT22;6249;52.128;9.986;2023-02-14T04:08:53;2.30;99.90
12370;DHT22;6249;52.128;9.986;2023-02-14T04:12:14;2.30;99.90
12370;DHT22;6249;52.128;9.986;2023-02-14T04:15:35;2.30;99.90
12370;DHT22;6249;52.128;9.986;2023-02-14T04:18:55;2.30;99.90
12370;DHT22;6249;52.128;9.986;2023-02-14T04:22:34;2.30;99.90
12370;DHT22;6249;52.128;9.986;2023-02-14T04:25:55;2.30;99.90
12370;DHT22;6249;52.128;9.986;2023-02-14T04:29:18;2.40;99.90
12370;DHT22;6249;52.128;9.986;2023-02-14T04:32:39;2.40;99.90
12370;DHT22;6249;52.128;9.986;2023-02-14T04:36:00;2.40;99.90
12370;DHT22;6249;52.128;9.986;2023-02-14T04:39:21;2.40;99.90
12370;DHT22;6249;52.128;9.986;2023-02-14T04:42:43;2.40;99.90
12370;DHT22;6249;52.128;9.986;2023-02-14T04:46:04;2.30;99.90
12370;DHT22;6249;52.128;9.986;2023-02-14T04:49:24;2.30;99.90
12370;DHT22;6249;52.128;9.986;2023-02-14T04:52:47;2.30;99.90
12370;DHT22;6249;52.128;9.986;2023-02-14T04:56:10;2.40;99.90
12370;DHT22;6249;52.128;9.986;2023-02-14T04:59:32;2.40;99.90
12370;DHT22;6249;52.128;9.986;2023-02-14T05:02:53;2.30;99.90
12370;DHT22;6249;52.128;9.986;2023-02-14T05:06:14;2.40;99.90
12370;DHT22;6249;52.128;9.986;2023-02-14T05:09:37;2.40;99.90
12370;DHT22;6249;52.128;9.986;2023-02-14T05:12:57;2.30;99.90
12370;DHT22;6249;52.128;9.986;2023-02-14T05:16:18;2.40;99.90
12370;DHT22;6249;52.128;9.986;2023-02-14T05:19:41;2.40;99.90
12370;DHT22;6249;52.128;9.986;2023-02-14T05:23:01;2.40;99.90
12370;DHT22;6249;52.128;9.986;2023-02-14T05:26:25;2.30;99.90
12370;DHT22;6249;52.128;9.986;2023-02-14T05:29:48;2.40;99.90
12370;DHT22;6249;52.128;9.986;2023-02-14T05:33:08;2.50;99.90
12370;DHT22;6249;52.128;9.986;2023-02-14T05:36:32;2.50;99.90
12370;DHT22;6249;52.128;9.986;2023-02-14T05:39:53;2.50;99.90
12370;DHT22;6249;52.128;9.986;2023-02-14T05:43:15;2.50;99.90
12370;DHT22;6249;52.128;9.986;2023-02-14T05:46:36;2.50;99.90
12370;DHT22;6249;52.128;9.986;2023-02-14T05:49:57;2.60;99.90
12370;DHT22;6249;52.128;9.986;2023-02-14T05:53:20;2.80;99.90
12370;DHT22;6249;52.128;9.986;2023-02-14T05:56:40;2.80;99.90
12370;DHT22;6249;52.128;9.986;2023-02-14T06:00:02;2.70;99.90
12370;DHT22;6249;52.128;9.986;2023-02-14T06:03:25;2.60;99.90
12370;DHT22;6249;52.128;9.986;2023-02-14T06:06:48;2.50;99.90
12370;DHT22;6249;52.128;9.986;2023-02-14T06:10:09;2.70;99.90
12370;DHT22;6249;52.128;9.986;2023-02-14T06:13:30;2.60;99.90
12370;DHT22;6249;52.128;9.986;2023-02-14T06:16:50;2.70;99.90
12370;DHT22;6249;52.128;9.986;2023-02-14T06:20:14;2.70;99.90
12370;DHT22;6249;52.128;9.986;2023-02-14T06:23:37;2.80;99.90
12370;DHT22;6249;52.128;9.986;2023-02-14T06:26:58;2.70;99.90
12370;DHT22;6249;52.128;9.986;2023-02-14T06:30:19;2.60;99.90
12370;DHT22;6249;52.128;9.986;2023-02-14T06:33:39;2.70;99.90
12370;DHT22;6249;52.128;9.986;2023-02-14T06:37:00;3.20;99.90
12370;DHT22;6249;52.128;9.986;2023-02-14T06:40:20;2.70;99.90
12370;DHT22;6249;52.128;9.986;2023-02-14T06:43:45;2.70;99.90
12370;DHT22;6249;52.128;9.986;2023-02-14T06:47:08;2.70;99.90
12370;DHT22;6249;52.128;9.986;2023-02-14T06:50:32;2.60;99.90
12370;DHT22;6249;52.128;9.986;2023-02-14T06:53:52;2.60;99.90
12370;DHT22;6249;52.128;9.986;2023-02-14T06:57:13;2.70;99.90
12370;DHT22;6249;52.128;9.986;2023-02-14T07:00:33;2.80;99.90
12370;DHT22;6249;52.128;9.986;2023-02-14T07:03:54;2.80;99.90
12370;DHT22;6249;52.128;9.986;2023-02-14T07:07:14;2.80;99.90
12370;DHT22;6249;52.128;9.986;2023-02-14T07:10:38;2.70;99.90
12370;DHT22;6249;52.128;9.986;2023-02-14T07:13:58;2.80;99.90
12370;DHT22;6249;52.128;9.986;2023-02-14T07:17:19;2.80;99.90
12370;DHT22;6249;52.128;9.986;2023-02-14T07:20:39;2.90;99.90
12370;DHT22;6249;52.128;9.986;2023-02-14T07:24:00;2.90;99.90
12370;DHT22;6249;52.128;9.986;2023-02-14T07:27:20;3.00;99.90
12370;DHT22;6249;52.128;9.986;2023-02-14T07:30:41;3.00;99.90
12370;DHT22;6249;52.128;9.986;2023-02-14T07:34:04;3.30;99.90
12370;DHT22;6249;52.128;9.986;2023-02-14T07:37:27;3.60;99.90
12370;DHT22;6249;52.128;9.986;2023-02-14T07:40:47;3.50;99.90
12370;DHT22;6249;52.128;9.986;2023-02-14T07:44:08;3.60;99.90
12370;DHT22;6249;52.128;9.986;2023-02-14T07:47:31;3.80;99.90
12370;DHT22;6249;52.128;9.986;2023-02-14T07:50:52;3.90;99.90
12370;DHT22;6249;52.128;9.986;2023-02-14T07:54:16;3.90;99.90
12370;DHT22;6249;52.128;9.986;2023-02-14T07:57:39;4.10;99.90
12370;DHT22;6249;52.128;9.986;2023-02-14T08:01:00;4.10;99.90
12370;DHT22;6249;52.128;9.986;2023-02-14T08:04:20;4.20;99.90
12370;DHT22;6249;52.128;9.986;2023-02-14T08:07:45;4.40;99.90
12370;DHT22;6249;52.128;9.986;2023-02-14T08:11:08;4.60;99.90
12370;DHT22;6249;52.128;9.986;2023-02-14T08:14:31;4.70;99.90
12370;DHT22;6249;52.128;9.986;2023-02-14T08:17:57;5.20;99.90
12370;DHT22;6249;52.128;9.986;2023-02-14T08:21:18;5.20;99.90
12370;DHT22;6249;52.128;9.986;2023-02-14T08:24:38;5.40;99.90
12370;DHT22;6249;52.128;9.986;2023-02-14T08:28:01;5.70;99.90
12370;DHT22;6249;52.128;9.986;2023-02-14T08:31:27;5.80;99.90
12370;DHT22;6249;52.128;9.986;2023-02-14T08:34:50;5.80;99.90
12370;DHT22;6249;52.128;9.986;2023-02-14T08:38:13;6.00;99.90
12370;DHT22;6249;52.128;9.986;2023-02-14T08:41:34;6.20;99.90
12370;DHT22;6249;52.128;9.986;2023-02-14T08:44:55;6.40;99.90
12370;DHT22;6249;52.128;9.986;2023-02-14T08:48:15;6.60;99.90
12370;DHT22;6249;52.128;9.986;2023-02-14T08:51:36;7.00;99.90
12370;DHT22;6249;52.128;9.986;2023-02-14T08:54:56;7.20;99.90
12370;DHT22;6249;52.128;9.986;2023-02-14T08:58:17;7.50;99.90
12370;DHT22;6249;52.128;9.986;2023-02-14T09:01:40;7.90;99.90
12370;DHT22;6249;52.128;9.986;2023-02-14T09:05:03;8.10;99.90
12370;DHT22;6249;52.128;9.986;2023-02-14T09:08:25;8.30;99.90
12370;DHT22;6249;52.128;9.986;2023-02-14T09:11:48;8.70;99.90
12370;DHT22;6249;52.128;9.986;2023-02-14T09:15:09;8.80;99.90
12370;DHT22;6249;52.128;9.986;2023-02-14T09:18:30;9.10;99.90
12370;DHT22;6249;52.128;9.986;2023-02-14T09:21:51;9.60;99.90
12370;DHT22;6249;52.128;9.986;2023-02-14T09:25:14;9.70;99.90
12370;DHT22;6249;52.128;9.986;2023-02-14T09:28:35;10.10;99.90
12370;DHT22;6249;52.128;9.986;2023-02-14T09:32:00;10.40;99.90
12370;DHT22;6249;52.128;9.986;2023-02-14T09:35:21;10.50;99.90
12370;DHT22;6249;52.128;9.986;2023-02-14T09:38:42;10.80;99.90
12370;DHT22;6249;52.128;9.986;2023-02-14T09:46:02;11.30;99.90
12370;DHT22;6249;52.128;9.986;2023-02-14T09:49:34;11.70;99.90
12370;DHT22;6249;52.128;9.986;2023-02-14T09:53:00;12.10;99.90
12370;DHT22;6249;52.128;9.986;2023-02-14T10:07:24;13.40;99.90
12370;DHT22;6249;52.128;9.986;2023-02-14T10:10:50;13.70;99.90
12370;DHT22;6249;52.128;9.986;2023-02-14T10:14:16;13.70;99.90
12370;DHT22;6249;52.128;9.986;2023-02-14T10:17:41;14.00;99.90
12370;DHT22;6249;52.128;9.986;2023-02-14T10:21:08;14.10;99.90
12370;DHT22;6249;52.128;9.986;2023-02-14T10:24:44;14.30;99.90
12370;DHT22;6249;52.128;9.986;2023-02-14T10:28:10;14.70;99.90
12370;DHT22;6249;52.128;9.986;2023-02-14T10:39:38;15.00;99.90
12370;DHT22;6249;52.128;9.986;2023-02-14T10:47:03;16.00;98.00
12370;DHT22;6249;52.128;9.986;2023-02-14T10:57:42;16.80;95.80
12370;DHT22;6249;52.128;9.986;2023-02-14T11:01:15;16.70;96.50
12370;DHT22;6249;52.128;9.986;2023-02-14T11:04:37;17.10;96.50
12370;DHT22;6249;52.128;9.986;2023-02-14T11:08:00;18.00;95.10
12370;DHT22;6249;52.128;9.986;2023-02-14T11:11:37;18.20;94.50
12370;DHT22;6249;52.128;9.986;2023-02-14T11:18:37;19.30;92.50
12370;DHT22;6249;52.128;9.986;2023-02-14T11:22:00;19.80;91.30
12370;DHT22;6249;52.128;9.986;2023-02-14T11:25:25;20.30;90.80
12370;DHT22;6249;52.128;9.986;2023-02-14T11:29:00;20.90;90.30
12370;DHT22;6249;52.128;9.986;2023-02-14T11:32:27;21.20;87.60
12370;DHT22;6249;52.128;9.986;2023-02-14T11:35:52;20.70;87.20
12370;DHT22;6249;52.128;9.986;2023-02-14T11:39:28;20.80;87.60
12370;DHT22;6249;52.128;9.986;2023-02-14T11:42:49;21.30;86.60
12370;DHT22;6249;52.128;9.986;2023-02-14T11:49:42;21.50;84.50
12370;DHT22;6249;52.128;9.986;2023-02-14T11:53:20;21.70;84.70
12370;DHT22;6249;52.128;9.986;2023-02-14T11:56:56;21.80;85.30
12370;DHT22;6249;52.128;9.986;2023-02-14T12:00:21;22.30;82.20
12370;DHT22;6249;52.128;9.986;2023-02-14T12:03:45;22.40;82.10
12370;DHT22;6249;52.128;9.986;2023-02-14T12:07:22;22.70;79.30
12370;DHT22;6249;52.128;9.986;2023-02-14T12:10:44;22.60;78.50
12370;DHT22;6249;52.128;9.986;2023-02-14T12:14:23;22.10;78.00
12370;DHT22;6249;52.128;9.986;2023-02-14T12:17:46;21.80;79.20
12370;DHT22;6249;52.128;9.986;2023-02-14T12:28:15;23.00;76.10
12370;DHT22;6249;52.128;9.986;2023-02-14T12:31:40;22.90;75.30
12370;DHT22;6249;52.128;9.986;2023-02-14T12:35:16;22.50;74.70
12370;DHT22;6249;52.128;9.986;2023-02-14T13:12:09;26.20;61.10
12370;DHT22;6249;52.128;9.986;2023-02-14T13:19:45;25.90;56.00
12370;DHT22;6249;52.128;9.986;2023-02-14T13:23:30;26.30;56.30
12370;DHT22;6249;52.128;9.986;2023-02-14T13:26:57;26.30;54.40
12370;DHT22;6249;52.128;9.986;2023-02-14T13:30:33;26.10;53.60
12370;DHT22;6249;52.128;9.986;2023-02-14T13:37:27;25.60;55.40
12370;DHT22;6249;52.128;9.986;2023-02-14T13:40:49;26.10;55.00
12370;DHT22;6249;52.128;9.986;2023-02-14T13:44:10;26.00;54.30
12370;DHT22;6249;52.128;9.986;2023-02-14T13:47:33;26.20;53.10
12370;DHT22;6249;52.128;9.986;2023-02-14T13:51:07;25.20;53.90
12370;DHT22;6249;52.128;9.986;2023-02-14T13:58:17;24.60;55.80
12370;DHT22;6249;52.128;9.986;2023-02-14T14:01:43;24.90;54.60
12370;DHT22;6249;52.128;9.986;2023-02-14T14:09:02;25.40;54.70
12370;DHT22;6249;52.128;9.986;2023-02-14T14:19:40;25.40;54.30
12370;DHT22;6249;52.128;9.986;2023-02-14T14:23:25;25.50;54.20
12370;DHT22;6249;52.128;9.986;2023-02-14T14:30:27;25.00;54.70
12370;DHT22;6249;52.128;9.986;2023-02-14T14:33:57;25.40;54.70
12370;DHT22;6249;52.128;9.986;2023-02-14T14:37:21;25.50;53.80
12370;DHT22;6249;52.128;9.986;2023-02-14T14:40:45;25.50;53.80
12370;DHT22;6249;52.128;9.986;2023-02-14T14:44:08;25.10;53.20
12370;DHT22;6249;52.128;9.986;2023-02-14T14:47:45;25.00;54.00
12370;DHT22;6249;52.128;9.986;2023-02-14T14:51:13;24.30;53.70
12370;DHT22;6249;52.128;9.986;2023-02-14T14:54:39;23.90;55.70
12370;DHT22;6249;52.128;9.986;2023-02-14T14:58:02;24.10;56.20
12370;DHT22;6249;52.128;9.986;2023-02-14T15:01:36;24.60;56.50
12370;DHT22;6249;52.128;9.986;2023-02-14T15:05:12;24.80;56.50
12370;DHT22;6249;52.128;9.986;2023-02-14T15:08:36;24.90;56.00
12370;DHT22;6249;52.128;9.986;2023-02-14T15:11:58;25.10;55.40
12370;DHT22;6249;52.128;9.986;2023-02-14T15:15:38;24.50;56.00
12370;DHT22;6249;52.128;9.986;2023-02-14T15:19:06;24.70;56.80
12370;DHT22;6249;52.128;9.986;2023-02-14T15:22:34;24.90;56.00
12370;DHT22;6249;52.128;9.986;2023-02-14T15:25:56;24.80;57.20
12370;DHT22;6249;52.128;9.986;2023-02-14T15:29:29;24.40;57.20
12370;DHT22;6249;52.128;9.986;2023-02-14T15:32:50;24.20;58.00
12370;DHT22;6249;52.128;9.986;2023-02-14T15:36:19;24.50;60.60
12370;DHT22;6249;52.128;9.986;2023-02-14T15:39:48;25.40;61.30
12370;DHT22;6249;52.128;9.986;2023-02-14T15:46:41;25.90;61.40
12370;DHT22;6249;52.128;9.986;2023-02-14T15:50:14;25.80;61.30
12370;DHT22;6249;52.128;9.986;2023-02-14T15:53:39;25.70;60.80
12370;DHT22;6249;52.128;9.986;2023-02-14T15:57:01;25.20;62.60
12370;DHT22;6249;52.128;9.986;2023-02-14T16:00:25;24.60;64.30
12370;DHT22;6249;52.128;9.986;2023-02-14T16:03:53;24.30;65.40
12370;DHT22;6249;52.128;9.986;2023-02-14T16:07:27;24.10;66.80
12370;DHT22;6249;52.128;9.986;2023-02-14T16:11:14;24.00;67.00
12370;DHT22;6249;52.128;9.986;2023-02-14T16:14:36;23.40;68.80
12370;DHT22;6249;52.128;9.986;2023-02-14T16:17:57;22.60;71.40
12370;DHT22;6249;52.128;9.986;2023-02-14T16:21:29;21.90;72.90
12370;DHT22;6249;52.128;9.986;2023-02-14T16:24:51;20.40;78.10
12370;DHT22;6249;52.128;9.986;2023-02-14T16:28:12;19.40;82.80
12370;DHT22;6249;52.128;9.986;2023-02-14T16:31:33;18.40;87.60
12370;DHT22;6249;52.128;9.986;2023-02-14T16:34:55;17.80;91.40
12370;DHT22;6249;52.128;9.986;2023-02-14T16:38:18;17.10;93.00
12370;DHT22;6249;52.128;9.986;2023-02-14T16:41:42;16.30;95.20
12370;DHT22;6249;52.128;9.986;2023-02-14T16:45:03;16.00;97.10
12370;DHT22;6249;52.128;9.986;2023-02-14T16:48:26;15.70;98.40
12370;DHT22;6249;52.128;9.986;2023-02-14T16:51:50;15.30;99.50
12370;DHT22;6249;52.128;9.986;2023-02-14T16:55:17;14.90;99.90
12370;DHT22;6249;52.128;9.986;2023-02-14T16:58:42;14.70;99.90
12370;DHT22;6249;52.128;9.986;2023-02-14T17:02:02;14.40;99.90
12370;DHT22;6249;52.128;9.986;2023-02-14T17:05:23;14.20;99.90
12370;DHT22;6249;52.128;9.986;2023-02-14T17:08:47;13.90;99.90
12370;DHT22;6249;52.128;9.986;2023-02-14T17:12:12;13.60;99.90
12370;DHT22;6249;52.128;9.986;2023-02-14T17:15:37;13.20;99.90
12370;DHT22;6249;52.128;9.986;2023-02-14T17:19:01;12.90;99.90
12370;DHT22;6249;52.128;9.986;2023-02-14T17:22:22;12.70;99.90
12370;DHT22;6249;52.128;9.986;2023-02-14T17:25:43;12.50;99.90
12370;DHT22;6249;52.128;9.986;2023-02-14T17:29:05;12.30;99.90
12370;DHT22;6249;52.128;9.986;2023-02-14T17:32:26;12.10;99.90
12370;DHT22;6249;52.128;9.986;2023-02-14T17:35:49;12.10;99.90
12370;DHT22;6249;52.128;9.986;2023-02-14T17:39:12;11.80;99.90
12370;DHT22;6249;52.128;9.986;2023-02-14T17:42:36;11.70;99.90
12370;DHT22;6249;52.128;9.986;2023-02-14T17:46:05;11.50;99.90
12370;DHT22;6249;52.128;9.986;2023-02-14T17:49:25;11.40;99.90
12370;DHT22;6249;52.128;9.986;2023-02-14T17:52:46;11.20;99.90
12370;DHT22;6249;52.128;9.986;2023-02-14T17:56:12;11.10;99.90
12370;DHT22;6249;52.128;9.986;2023-02-14T17:59:36;11.00;99.90
12370;DHT22;6249;52.128;9.986;2023-02-14T18:02:59;11.00;99.90
12370;DHT22;6249;52.128;9.986;2023-02-14T18:06:22;11.00;99.90
12370;DHT22;6249;52.128;9.986;2023-02-14T18:09:43;10.90;99.90
12370;DHT22;6249;52.128;9.986;2023-02-14T18:13:03;10.80;99.90
12370;DHT22;6249;52.128;9.986;2023-02-14T18:16:26;10.80;99.90
12370;DHT22;6249;52.128;9.986;2023-02-14T18:19:46;10.60;99.90
12370;DHT22;6249;52.128;9.986;2023-02-14T18:23:10;10.40;99.90
12370;DHT22;6249;52.128;9.986;2023-02-14T18:26:33;10.20;99.90
12370;DHT22;6249;52.128;9.986;2023-02-14T18:29:54;10.10;99.90
12370;DHT22;6249;52.128;9.986;2023-02-14T18:33:15;9.90;99.90
12370;DHT22;6249;52.128;9.986;2023-02-14T18:36:40;9.70;99.90
12370;DHT22;6249;52.128;9.986;2023-02-14T18:40:04;9.60;99.90
12370;DHT22;6249;52.128;9.986;2023-02-14T18:43:24;9.50;99.90
12370;DHT22;6249;52.128;9.986;2023-02-14T18:46:45;9.40;99.90
12370;DHT22;6249;52.128;9.986;2023-02-14T18:50:08;9.20;99.90
12370;DHT22;6249;52.128;9.986;2023-02-14T18:53:31;9.20;99.90
12370;DHT22;6249;52.128;9.986;2023-02-14T18:56:52;9.00;99.90
12370;DHT22;6249;52.128;9.986;2023-02-14T19:00:13;8.90;99.90
12370;DHT22;6249;52.128;9.986;2023-02-14T19:03:35;8.80;99.90
12370;DHT22;6249;52.128;9.986;2023-02-14T19:06:55;8.80;99.90
12370;DHT22;6249;52.128;9.986;2023-02-14T19:10:16;8.70;99.90
12370;DHT22;6249;52.128;9.986;2023-02-14T19:13:37;8.60;99.90
12370;DHT22;6249;52.128;9.986;2023-02-14T19:16:59;8.40;99.90
12370;DHT22;6249;52.128;9.986;2023-02-14T19:20:23;8.40;99.90
12370;DHT22;6249;52.128;9.986;2023-02-14T19:23:43;8.40;99.90
12370;DHT22;6249;52.128;9.986;2023-02-14T19:27:04;8.20;99.90
12370;DHT22;6249;52.128;9.986;2023-02-14T19:30:25;8.20;99.90
12370;DHT22;6249;52.128;9.986;2023-02-14T19:33:48;8.20;99.90
12370;DHT22;6249;52.128;9.986;2023-02-14T19:37:08;8.10;99.90
12370;DHT22;6249;52.128;9.986;2023-02-14T19:40:29;8.10;99.90
12370;DHT22;6249;52.128;9.986;2023-02-14T19:43:50;8.00;99.90
12370;DHT22;6249;52.128;9.986;2023-02-14T19:47:14;8.00;99.90
12370;DHT22;6249;52.128;9.986;2023-02-14T19:50:39;7.80;99.90
12370;DHT22;6249;52.128;9.986;2023-02-14T19:54:02;7.90;99.90
12370;DHT22;6249;52.128;9.986;2023-02-14T19:57:24;8.00;99.90
12370;DHT22;6249;52.128;9.986;2023-02-14T20:00:54;8.10;99.90
12370;DHT22;6249;52.128;9.986;2023-02-14T20:04:23;8.00;99.90
12370;DHT22;6249;52.128;9.986;2023-02-14T20:07:47;7.90;99.90
12370;DHT22;6249;52.128;9.986;2023-02-14T20:14:58;7.70;99.90
12370;DHT22;6249;52.128;9.986;2023-02-14T20:18:19;7.70;99.90
12370;DHT22;6249;52.128;9.986;2023-02-14T20:21:40;7.70;99.90
12370;DHT22;6249;52.128;9.986;2023-02-14T20:25:03;7.70;99.90
12370;DHT22;6249;52.128;9.986;2023-02-14T20:28:25;7.80;99.90
12370;DHT22;6249;52.128;9.986;2023-02-14T20:31:50;7.70;99.90
12370;DHT22;6249;52.128;9.986;2023-02-14T20:35:13;7.70;99.90
12370;DHT22;6249;52.128;9.986;2023-02-14T20:38:36;7.50;99.90
12370;DHT22;6249;52.128;9.986;2023-02-14T20:41:59;7.50;99.90
12370;DHT22;6249;52.128;9.986;2023-02-14T20:45:20;7.50;99.90
12370;DHT22;6249;52.128;9.986;2023-02-14T20:48:41;7.60;99.90
12370;DHT22;6249;52.128;9.986;2023-02-14T20:52:01;7.60;99.90
12370;DHT22;6249;52.128;9.986;2023-02-14T20:55:22;7.60;99.90
12370;DHT22;6249;52.128;9.986;2023-02-14T20:58:43;7.70;99.90
12370;DHT22;6249;52.128;9.986;2023-02-14T21:02:03;7.70;99.90
12370;DHT22;6249;52.128;9.986;2023-02-14T21:05:24;7.60;99.90
12370;DHT22;6249;52.128;9.986;2023-02-14T21:08:51;7.50;99.90
12370;DHT22;6249;52.128;9.986;2023-02-14T21:12:13;7.40;99.90
12370;DHT22;6249;52.128;9.986;2023-02-14T21:15:34;7.10;99.90
12370;DHT22;6249;52.128;9.986;2023-02-14T21:18:57;7.00;99.90
12370;DHT22;6249;52.128;9.986;2023-02-14T21:22:20;7.00;99.90
12370;DHT22;6249;52.128;9.986;2023-02-14T21:25:43;6.90;99.90
12370;DHT22;6249;52.128;9.986;2023-02-14T21:29:06;6.90;99.90
12370;DHT22;6249;52.128;9.986;2023-02-14T21:32:27;6.70;99.90
12370;DHT22;6249;52.128;9.986;2023-02-14T21:35:48;6.80;99.90
12370;DHT22;6249;52.128;9.986;2023-02-14T21:39:09;6.80;99.90
12370;DHT22;6249;52.128;9.986;2023-02-14T21:42:29;6.80;99.90
12370;DHT22;6249;52.128;9.986;2023-02-14T21:45:52;6.80;99.90
12370;DHT22;6249;52.128;9.986;2023-02-14T21:49:12;7.00;99.90
12370;DHT22;6249;52.128;9.986;2023-02-14T21:52:52;7.00;99.90
12370;DHT22;6249;52.128;9.986;2023-02-14T21:56:15;7.00;99.90
12370;DHT22;6249;52.128;9.986;2023-02-14T21:59:41;6.90;99.90
12370;DHT22;6249;52.128;9.986;2023-02-14T22:03:04;7.00;99.90
12370;DHT22;6249;52.128;9.986;2023-02-14T22:06:26;7.10;99.90
12370;DHT22;6249;52.128;9.986;2023-02-14T22:09:47;6.90;99.90
12370;DHT22;6249;52.128;9.986;2023-02-14T22:13:07;6.70;99.90
12370;DHT22;6249;52.128;9.986;2023-02-14T22:16:28;6.70;99.90
12370;DHT22;6249;52.128;9.986;2023-02-14T22:19:49;6.70;99.90
12370;DHT22;6249;52.128;9.986;2023-02-14T22:23:09;6.70;99.90
12370;DHT22;6249;52.128;9.986;2023-02-14T22:26:32;6.90;99.90
12370;DHT22;6249;52.128;9.986;2023-02-14T22:29:54;6.60;99.90
12370;DHT22;6249;52.128;9.986;2023-02-14T22:33:17;6.50;99.90
12370;DHT22;6249;52.128;9.986;2023-02-14T22:36:37;6.50;99.90
12370;DHT22;6249;52.128;9.986;2023-02-14T22:39:58;6.60;99.90
12370;DHT22;6249;52.128;9.986;2023-02-14T22:43:19;6.70;99.90
12370;DHT22;6249;52.128;9.986;2023-02-14T22:46:39;6.70;99.90
12370;DHT22;6249;52.128;9.986;2023-02-14T22:50:02;6.80;99.90
12370;DHT22;6249;52.128;9.986;2023-02-14T22:53:23;6.80;99.90
12370;DHT22;6249;52.128;9.986;2023-02-14T22:56:48;6.80;99.90
12370;DHT22;6249;52.128;9.986;2023-02-14T23:00:14;6.70;99.90
12370;DHT22;6249;52.128;9.986;2023-02-14T23:03:35;6.60;99.90
12370;DHT22;6249;52.128;9.986;2023-02-14T23:06:56;6.60;99.90
12370;DHT22;6249;52.128;9.986;2023-02-14T23:10:17;6.60;99.90
12370;DHT22;6249;52.128;9.986;2023-02-14T23:13:37;6.50;99.90
12370;DHT22;6249;52.128;9.986;2023-02-14T23:17:22;6.50;99.90
12370;DHT22;6249;52.128;9.986;2023-02-14T23:21:01;6.60;99.90
12370;DHT22;6249;52.128;9.986;2023-02-14T23:24:40;6.70;99.90
12370;DHT22;6249;52.128;9.986;2023-02-14T23:28:01;6.60;99.90
12370;DHT22;6249;52.128;9.986;2023-02-14T23:31:24;6.50;99.90
12370;DHT22;6249;52.128;9.986;2023-02-14T23:34:45;6.50;99.90
12370;DHT22;6249;52.128;9.986;2023-02-14T23:38:06;6.40;99.90
12370;DHT22;6249;52.128;9.986;2023-02-14T23:41:26;6.30;99.90
12370;DHT22;6249;52.128;9.986;2023-02-14T23:45:06;6.30;99.90
12370;DHT22;6249;52.128;9.986;2023-02-14T23:48:45;6.40;99.90
12370;DHT22;6249;52.128;9.986;2023-02-14T23:52:07;6.40;99.90
12370;DHT22;6249;52.128;9.986;2023-02-14T23:55:28;6.40;99.90
12370;DHT22;6249;52.128;9.986;2023-02-14T23:58:49;6.40;99.90
